Preview of NWS' New Version of Forecast
This preview is not operational and should not be used for support decisions.

Terminal Aerodrome Forecast (TAF)

Issued by National Weather Service (NWS)

                            
544 
FTUS42 KMFL 261720
TAFMIA
TAF
KMIA 261720Z 2618/2724 12012KT P6SM SHRA SCT008 BKN014 OVC030
      TEMPO 2618/2622 4SM +RA BKN015
     FM270800 16015KT P6SM SHRA VCTS SCT010 BKN030CB
     FM271200 17018G25KT P6SM VCSH OVC030=